sensor_id;sensor_type;location;lat;lon;timestamp;pressure;altitude;pressure_sealevel;temperature;humidity
34482;BME280;20720;48.886;9.388;2023-12-22T00:01:45;97031.84;;;10.50;100.00
34482;BME280;20720;48.886;9.388;2023-12-22T00:04:10;97036.69;;;10.81;100.00
34482;BME280;20720;48.886;9.388;2023-12-22T00:06:36;97024.81;;;10.90;100.00
34482;BME280;20720;48.886;9.388;2023-12-22T00:09:01;96998.44;;;10.85;100.00
34482;BME280;20720;48.886;9.388;2023-12-22T00:11:27;97005.31;;;10.74;100.00
34482;BME280;20720;48.886;9.388;2023-12-22T00:13:52;97011.03;;;10.71;100.00
34482;BME280;20720;48.886;9.388;2023-12-22T00:16:17;97007.13;;;10.74;100.00
34482;BME280;20720;48.886;9.388;2023-12-22T00:18:42;97005.34;;;10.63;100.00
34482;BME280;20720;48.886;9.388;2023-12-22T00:21:11;97010.03;;;10.61;100.00
34482;BME280;20720;48.886;9.388;2023-12-22T00:23:36;97011.41;;;10.63;100.00
34482;BME280;20720;48.886;9.388;2023-12-22T00:26:03;97026.22;;;10.00;100.00
34482;BME280;20720;48.886;9.388;2023-12-22T00:28:28;97025.16;;;9.25;100.00
34482;BME280;20720;48.886;9.388;2023-12-22T00:30:53;97061.19;;;9.59;100.00
34482;BME280;20720;48.886;9.388;2023-12-22T00:33:18;97072.84;;;9.86;100.00
34482;BME280;20720;48.886;9.388;2023-12-22T00:35:44;97096.81;;;9.78;100.00
34482;BME280;20720;48.886;9.388;2023-12-22T00:38:09;97098.25;;;9.15;100.00
34482;BME280;20720;48.886;9.388;2023-12-22T00:40:35;97126.19;;;9.21;100.00
34482;BME280;20720;48.886;9.388;2023-12-22T00:43:00;97117.91;;;8.88;100.00
34482;BME280;20720;48.886;9.388;2023-12-22T00:45:25;97142.44;;;8.50;100.00
34482;BME280;20720;48.886;9.388;2023-12-22T00:47:51;97138.94;;;8.81;100.00
34482;BME280;20720;48.886;9.388;2023-12-22T00:50:16;97142.91;;;8.66;100.00
34482;BME280;20720;48.886;9.388;2023-12-22T00:52:41;97119.72;;;8.20;100.00
34482;BME280;20720;48.886;9.388;2023-12-22T00:55:07;97123.78;;;8.65;100.00
34482;BME280;20720;48.886;9.388;2023-12-22T00:57:32;97119.03;;;8.55;100.00
34482;BME280;20720;48.886;9.388;2023-12-22T00:59:58;97122.91;;;8.28;100.00
34482;BME280;20720;48.886;9.388;2023-12-22T01:02:23;97113.97;;;8.61;100.00
34482;BME280;20720;48.886;9.388;2023-12-22T01:04:48;97127.06;;;8.36;100.00
34482;BME280;20720;48.886;9.388;2023-12-22T01:07:13;97123.50;;;8.73;100.00
34482;BME280;20720;48.886;9.388;2023-12-22T01:09:39;97121.53;;;8.69;100.00
34482;BME280;20720;48.886;9.388;2023-12-22T01:12:04;97119.28;;;8.90;100.00
34482;BME280;20720;48.886;9.388;2023-12-22T01:14:31;97113.97;;;9.15;100.00
34482;BME280;20720;48.886;9.388;2023-12-22T01:16:56;97110.63;;;9.08;100.00
34482;BME280;20720;48.886;9.388;2023-12-22T01:19:22;97099.44;;;9.01;100.00
34482;BME280;20720;48.886;9.388;2023-12-22T01:21:47;97098.44;;;8.84;100.00
34482;BME280;20720;48.886;9.388;2023-12-22T01:24:13;97095.19;;;8.45;100.00
34482;BME280;20720;48.886;9.388;2023-12-22T01:26:38;97098.69;;;9.12;100.00
34482;BME280;20720;48.886;9.388;2023-12-22T01:29:03;97093.00;;;9.15;100.00
34482;BME280;20720;48.886;9.388;2023-12-22T01:31:29;97096.34;;;8.86;100.00
34482;BME280;20720;48.886;9.388;2023-12-22T01:33:54;97098.03;;;9.16;100.00
34482;BME280;20720;48.886;9.388;2023-12-22T01:36:19;97102.91;;;9.31;100.00
34482;BME280;20720;48.886;9.388;2023-12-22T01:38:44;97100.28;;;9.31;100.00
34482;BME280;20720;48.886;9.388;2023-12-22T01:41:10;97101.81;;;9.50;100.00
34482;BME280;20720;48.886;9.388;2023-12-22T01:43:35;97097.22;;;9.34;100.00
34482;BME280;20720;48.886;9.388;2023-12-22T01:46:01;97110.19;;;9.11;100.00
34482;BME280;20720;48.886;9.388;2023-12-22T01:48:27;97110.84;;;9.54;100.00
34482;BME280;20720;48.886;9.388;2023-12-22T01:50:55;97108.91;;;9.49;100.00
34482;BME280;20720;48.886;9.388;2023-12-22T01:53:21;97106.34;;;9.61;100.00
34482;BME280;20720;48.886;9.388;2023-12-22T01:55:48;97103.88;;;9.00;100.00
34482;BME280;20720;48.886;9.388;2023-12-22T01:58:15;97098.03;;;8.80;100.00
34482;BME280;20720;48.886;9.388;2023-12-22T02:00:41;97094.09;;;8.04;100.00
34482;BME280;20720;48.886;9.388;2023-12-22T02:03:07;97098.63;;;8.82;100.00
34482;BME280;20720;48.886;9.388;2023-12-22T02:05:33;97091.34;;;8.84;100.00
34482;BME280;20720;48.886;9.388;2023-12-22T02:07:59;97094.47;;;9.29;100.00
34482;BME280;20720;48.886;9.388;2023-12-22T02:10:24;97091.56;;;8.83;100.00
34482;BME280;20720;48.886;9.388;2023-12-22T02:12:49;97080.88;;;8.66;100.00
34482;BME280;20720;48.886;9.388;2023-12-22T02:15:15;97071.31;;;8.53;100.00
34482;BME280;20720;48.886;9.388;2023-12-22T02:17:48;97076.22;;;8.86;100.00
34482;BME280;20720;48.886;9.388;2023-12-22T02:20:14;97089.34;;;9.64;100.00
34482;BME280;20720;48.886;9.388;2023-12-22T02:22:39;97104.47;;;9.62;100.00
34482;BME280;20720;48.886;9.388;2023-12-22T02:25:05;97101.00;;;9.38;100.00
34482;BME280;20720;48.886;9.388;2023-12-22T02:27:39;97113.44;;;9.72;100.00
34482;BME280;20720;48.886;9.388;2023-12-22T02:30:09;97118.72;;;9.54;100.00
34482;BME280;20720;48.886;9.388;2023-12-22T02:32:39;97122.31;;;9.71;100.00
34482;BME280;20720;48.886;9.388;2023-12-22T02:35:09;97127.16;;;9.86;100.00
34482;BME280;20720;48.886;9.388;2023-12-22T02:37:36;97138.50;;;9.68;100.00
34482;BME280;20720;48.886;9.388;2023-12-22T02:40:04;97125.66;;;9.90;100.00
34482;BME280;20720;48.886;9.388;2023-12-22T02:42:30;97119.56;;;9.66;100.00
34482;BME280;20720;48.886;9.388;2023-12-22T02:44:57;97114.97;;;9.91;100.00
34482;BME280;20720;48.886;9.388;2023-12-22T02:47:23;97121.31;;;9.54;100.00
34482;BME280;20720;48.886;9.388;2023-12-22T02:49:48;97116.91;;;9.55;100.00
34482;BME280;20720;48.886;9.388;2023-12-22T02:52:13;97111.00;;;9.59;100.00
34482;BME280;20720;48.886;9.388;2023-12-22T02:54:39;97119.94;;;9.81;100.00
34482;BME280;20720;48.886;9.388;2023-12-22T02:57:08;97115.41;;;9.88;100.00
34482;BME280;20720;48.886;9.388;2023-12-22T02:59:33;97114.50;;;9.53;100.00
34482;BME280;20720;48.886;9.388;2023-12-22T03:01:58;97118.91;;;9.82;100.00
34482;BME280;20720;48.886;9.388;2023-12-22T03:04:24;97120.22;;;9.62;100.00
34482;BME280;20720;48.886;9.388;2023-12-22T03:06:49;97103.44;;;9.92;100.00
34482;BME280;20720;48.886;9.388;2023-12-22T03:09:14;97124.69;;;10.02;100.00
34482;BME280;20720;48.886;9.388;2023-12-22T03:11:40;97099.78;;;9.82;100.00
34482;BME280;20720;48.886;9.388;2023-12-22T03:14:05;97111.81;;;9.71;100.00
34482;BME280;20720;48.886;9.388;2023-12-22T03:16:30;97086.63;;;9.70;100.00
34482;BME280;20720;48.886;9.388;2023-12-22T03:18:55;97084.69;;;9.36;100.00
34482;BME280;20720;48.886;9.388;2023-12-22T03:21:20;97079.13;;;9.85;100.00
34482;BME280;20720;48.886;9.388;2023-12-22T03:23:46;97100.16;;;9.67;100.00
34482;BME280;20720;48.886;9.388;2023-12-22T03:26:11;97089.69;;;9.67;100.00
34482;BME280;20720;48.886;9.388;2023-12-22T03:28:36;97118.13;;;9.82;100.00
34482;BME280;20720;48.886;9.388;2023-12-22T03:31:03;97102.66;;;9.62;100.00
34482;BME280;20720;48.886;9.388;2023-12-22T03:33:28;97103.41;;;9.81;100.00
34482;BME280;20720;48.886;9.388;2023-12-22T03:35:53;97111.19;;;9.87;100.00
34482;BME280;20720;48.886;9.388;2023-12-22T03:38:18;97137.06;;;9.84;100.00
34482;BME280;20720;48.886;9.388;2023-12-22T03:40:43;97139.25;;;9.87;100.00
34482;BME280;20720;48.886;9.388;2023-12-22T03:43:09;97143.38;;;9.94;100.00
34482;BME280;20720;48.886;9.388;2023-12-22T03:45:34;97143.47;;;10.17;100.00
34482;BME280;20720;48.886;9.388;2023-12-22T03:47:59;97134.81;;;10.28;100.00
34482;BME280;20720;48.886;9.388;2023-12-22T03:50:24;97137.44;;;9.87;100.00
34482;BME280;20720;48.886;9.388;2023-12-22T03:52:50;97137.31;;;9.94;100.00
34482;BME280;20720;48.886;9.388;2023-12-22T03:55:15;97130.47;;;9.93;100.00
34482;BME280;20720;48.886;9.388;2023-12-22T03:57:41;97142.56;;;10.23;100.00
34482;BME280;20720;48.886;9.388;2023-12-22T04:00:06;97130.66;;;10.09;100.00
34482;BME280;20720;48.886;9.388;2023-12-22T04:02:32;97140.13;;;9.81;100.00
34482;BME280;20720;48.886;9.388;2023-12-22T04:04:57;97140.31;;;10.09;100.00
34482;BME280;20720;48.886;9.388;2023-12-22T04:07:22;97136.16;;;10.19;100.00
34482;BME280;20720;48.886;9.388;2023-12-22T04:09:47;97163.66;;;9.87;100.00
34482;BME280;20720;48.886;9.388;2023-12-22T04:12:13;97171.19;;;9.66;100.00
34482;BME280;20720;48.886;9.388;2023-12-22T04:14:38;97187.72;;;9.36;100.00
34482;BME280;20720;48.886;9.388;2023-12-22T04:17:04;97146.28;;;8.91;100.00
34482;BME280;20720;48.886;9.388;2023-12-22T04:19:29;97147.38;;;9.01;100.00
34482;BME280;20720;48.886;9.388;2023-12-22T04:21:54;97151.84;;;9.01;100.00
34482;BME280;20720;48.886;9.388;2023-12-22T04:24:19;97140.25;;;8.47;100.00
34482;BME280;20720;48.886;9.388;2023-12-22T04:26:45;97132.88;;;8.81;100.00
34482;BME280;20720;48.886;9.388;2023-12-22T04:29:10;97119.69;;;8.51;100.00
34482;BME280;20720;48.886;9.388;2023-12-22T04:31:36;97087.66;;;8.31;100.00
34482;BME280;20720;48.886;9.388;2023-12-22T04:34:01;97104.03;;;8.44;100.00
34482;BME280;20720;48.886;9.388;2023-12-22T04:36:26;97114.69;;;8.68;100.00
34482;BME280;20720;48.886;9.388;2023-12-22T04:38:51;97122.44;;;8.56;100.00
34482;BME280;20720;48.886;9.388;2023-12-22T04:41:17;97119.97;;;8.61;100.00
34482;BME280;20720;48.886;9.388;2023-12-22T04:43:42;97148.47;;;8.76;100.00
34482;BME280;20720;48.886;9.388;2023-12-22T04:46:07;97163.31;;;8.82;100.00
34482;BME280;20720;48.886;9.388;2023-12-22T04:48:33;97158.25;;;8.62;100.00
34482;BME280;20720;48.886;9.388;2023-12-22T04:50:58;97135.53;;;8.56;100.00
34482;BME280;20720;48.886;9.388;2023-12-22T04:53:23;97137.34;;;8.55;100.00
34482;BME280;20720;48.886;9.388;2023-12-22T04:55:49;97149.44;;;8.32;100.00
34482;BME280;20720;48.886;9.388;2023-12-22T04:58:14;97143.28;;;8.69;100.00
34482;BME280;20720;48.886;9.388;2023-12-22T05:00:40;97141.69;;;8.68;100.00
34482;BME280;20720;48.886;9.388;2023-12-22T05:03:05;97138.13;;;8.63;100.00
34482;BME280;20720;48.886;9.388;2023-12-22T05:05:30;97152.97;;;9.23;100.00
34482;BME280;20720;48.886;9.388;2023-12-22T05:07:55;97155.31;;;8.95;100.00
34482;BME280;20720;48.886;9.388;2023-12-22T05:10:21;97167.09;;;8.61;100.00
34482;BME280;20720;48.886;9.388;2023-12-22T05:12:46;97161.56;;;8.94;100.00
34482;BME280;20720;48.886;9.388;2023-12-22T05:15:11;97179.63;;;9.02;100.00
34482;BME280;20720;48.886;9.388;2023-12-22T05:17:36;97172.34;;;9.04;100.00
34482;BME280;20720;48.886;9.388;2023-12-22T05:20:02;97180.47;;;9.50;100.00
34482;BME280;20720;48.886;9.388;2023-12-22T05:22:27;97176.78;;;9.21;100.00
34482;BME280;20720;48.886;9.388;2023-12-22T05:24:55;97179.75;;;8.89;100.00
34482;BME280;20720;48.886;9.388;2023-12-22T05:27:20;97175.91;;;9.27;100.00
34482;BME280;20720;48.886;9.388;2023-12-22T05:29:46;97175.84;;;9.16;100.00
34482;BME280;20720;48.886;9.388;2023-12-22T05:32:11;97182.50;;;8.76;100.00
34482;BME280;20720;48.886;9.388;2023-12-22T05:34:36;97184.25;;;9.00;100.00
34482;BME280;20720;48.886;9.388;2023-12-22T05:37:01;97185.00;;;9.25;100.00
34482;BME280;20720;48.886;9.388;2023-12-22T05:39:27;97189.78;;;8.92;100.00
34482;BME280;20720;48.886;9.388;2023-12-22T05:41:52;97209.91;;;9.34;100.00
34482;BME280;20720;48.886;9.388;2023-12-22T05:44:17;97200.56;;;9.74;100.00
34482;BME280;20720;48.886;9.388;2023-12-22T05:46:42;97193.72;;;9.37;100.00
34482;BME280;20720;48.886;9.388;2023-12-22T05:49:07;97184.25;;;9.18;100.00
34482;BME280;20720;48.886;9.388;2023-12-22T05:51:39;97184.25;;;9.18;100.00
34482;BME280;20720;48.886;9.388;2023-12-22T05:54:06;97193.28;;;9.22;100.00
34482;BME280;20720;48.886;9.388;2023-12-22T05:56:32;97195.50;;;9.25;100.00
34482;BME280;20720;48.886;9.388;2023-12-22T05:58:58;97190.81;;;9.45;100.00
34482;BME280;20720;48.886;9.388;2023-12-22T06:01:23;97184.56;;;9.10;100.00
34482;BME280;20720;48.886;9.388;2023-12-22T06:03:48;97178.63;;;8.78;100.00
34482;BME280;20720;48.886;9.388;2023-12-22T06:06:13;97184.88;;;9.38;100.00
34482;BME280;20720;48.886;9.388;2023-12-22T06:08:39;97202.91;;;9.64;100.00
34482;BME280;20720;48.886;9.388;2023-12-22T06:11:04;97223.47;;;9.31;100.00
34482;BME280;20720;48.886;9.388;2023-12-22T06:13:30;97207.94;;;9.47;100.00
34482;BME280;20720;48.886;9.388;2023-12-22T06:15:55;97214.59;;;9.80;100.00
34482;BME280;20720;48.886;9.388;2023-12-22T06:18:21;97228.69;;;9.31;100.00
34482;BME280;20720;48.886;9.388;2023-12-22T06:20:46;97240.06;;;9.61;100.00
34482;BME280;20720;48.886;9.388;2023-12-22T06:23:11;97234.19;;;9.95;100.00
34482;BME280;20720;48.886;9.388;2023-12-22T06:25:37;97262.03;;;9.78;100.00
34482;BME280;20720;48.886;9.388;2023-12-22T06:28:02;97280.50;;;10.01;100.00
34482;BME280;20720;48.886;9.388;2023-12-22T06:30:28;97288.09;;;10.09;100.00
34482;BME280;20720;48.886;9.388;2023-12-22T06:32:53;97286.69;;;10.07;100.00
34482;BME280;20720;48.886;9.388;2023-12-22T06:35:18;97295.31;;;9.96;100.00
34482;BME280;20720;48.886;9.388;2023-12-22T06:37:49;97293.28;;;9.80;100.00
34482;BME280;20720;48.886;9.388;2023-12-22T06:40:14;97283.28;;;10.06;100.00
34482;BME280;20720;48.886;9.388;2023-12-22T06:42:39;97286.88;;;9.76;100.00
34482;BME280;20720;48.886;9.388;2023-12-22T06:45:05;97294.53;;;9.77;100.00
34482;BME280;20720;48.886;9.388;2023-12-22T06:47:30;97302.53;;;9.64;100.00
34482;BME280;20720;48.886;9.388;2023-12-22T06:49:55;97313.91;;;9.76;100.00
34482;BME280;20720;48.886;9.388;2023-12-22T06:52:21;97297.00;;;10.08;100.00
34482;BME280;20720;48.886;9.388;2023-12-22T06:54:46;97305.66;;;10.27;100.00
34482;BME280;20720;48.886;9.388;2023-12-22T06:57:11;97304.66;;;10.10;100.00
34482;BME280;20720;48.886;9.388;2023-12-22T06:59:38;97300.44;;;9.73;100.00
34482;BME280;20720;48.886;9.388;2023-12-22T07:02:03;97321.47;;;10.02;100.00
34482;BME280;20720;48.886;9.388;2023-12-22T07:04:29;97324.16;;;9.96;100.00
34482;BME280;20720;48.886;9.388;2023-12-22T07:06:54;97332.56;;;10.04;100.00
34482;BME280;20720;48.886;9.388;2023-12-22T07:11:49;97348.75;;;10.19;100.00
34482;BME280;20720;48.886;9.388;2023-12-22T07:14:18;97346.97;;;10.31;100.00
34482;BME280;20720;48.886;9.388;2023-12-22T07:16:43;97359.16;;;10.08;100.00
34482;BME280;20720;48.886;9.388;2023-12-22T07:19:09;97358.88;;;10.34;100.00
34482;BME280;20720;48.886;9.388;2023-12-22T07:21:38;97346.78;;;9.97;100.00
34482;BME280;20720;48.886;9.388;2023-12-22T07:24:03;97370.63;;;9.95;100.00
34482;BME280;20720;48.886;9.388;2023-12-22T07:26:28;97371.94;;;10.40;100.00
34482;BME280;20720;48.886;9.388;2023-12-22T07:28:54;97375.44;;;10.16;100.00
34482;BME280;20720;48.886;9.388;2023-12-22T07:31:19;97379.75;;;10.29;100.00
34482;BME280;20720;48.886;9.388;2023-12-22T07:33:45;97366.03;;;10.27;100.00
34482;BME280;20720;48.886;9.388;2023-12-22T07:36:10;97364.56;;;10.13;100.00
34482;BME280;20720;48.886;9.388;2023-12-22T07:38:36;97354.53;;;10.10;100.00
34482;BME280;20720;48.886;9.388;2023-12-22T07:41:01;97355.13;;;10.41;100.00
34482;BME280;20720;48.886;9.388;2023-12-22T07:43:26;97370.19;;;10.34;100.00
34482;BME280;20720;48.886;9.388;2023-12-22T07:45:54;97381.56;;;10.28;100.00
34482;BME280;20720;48.886;9.388;2023-12-22T07:48:19;97374.69;;;9.91;100.00
34482;BME280;20720;48.886;9.388;2023-12-22T07:50:45;97374.44;;;10.47;100.00
34482;BME280;20720;48.886;9.388;2023-12-22T07:53:11;97380.03;;;10.21;100.00
34482;BME280;20720;48.886;9.388;2023-12-22T07:55:36;97377.91;;;9.93;100.00
34482;BME280;20720;48.886;9.388;2023-12-22T07:58:03;97382.13;;;9.76;100.00
34482;BME280;20720;48.886;9.388;2023-12-22T08:00:29;97371.50;;;10.25;100.00
34482;BME280;20720;48.886;9.388;2023-12-22T08:02:54;97376.72;;;10.43;100.00
34482;BME280;20720;48.886;9.388;2023-12-22T08:05:19;97383.00;;;10.06;100.00
34482;BME280;20720;48.886;9.388;2023-12-22T08:07:45;97395.97;;;10.37;100.00
34482;BME280;20720;48.886;9.388;2023-12-22T08:10:10;97387.53;;;10.35;100.00
34482;BME280;20720;48.886;9.388;2023-12-22T08:12:36;97391.41;;;10.15;100.00
34482;BME280;20720;48.886;9.388;2023-12-22T08:15:01;97397.38;;;10.40;100.00
34482;BME280;20720;48.886;9.388;2023-12-22T08:17:27;97402.56;;;9.68;100.00
34482;BME280;20720;48.886;9.388;2023-12-22T08:19:52;97405.56;;;9.46;100.00
34482;BME280;20720;48.886;9.388;2023-12-22T08:22:18;97393.00;;;9.06;100.00
34482;BME280;20720;48.886;9.388;2023-12-22T08:24:43;97384.56;;;9.28;100.00
34482;BME280;20720;48.886;9.388;2023-12-22T08:27:08;97366.78;;;9.06;100.00
34482;BME280;20720;48.886;9.388;2023-12-22T08:29:34;97372.06;;;9.48;100.00
34482;BME280;20720;48.886;9.388;2023-12-22T08:32:00;97367.31;;;9.14;100.00
34482;BME280;20720;48.886;9.388;2023-12-22T08:34:26;97355.69;;;9.53;100.00
34482;BME280;20720;48.886;9.388;2023-12-22T08:36:51;97358.63;;;9.63;100.00
34482;BME280;20720;48.886;9.388;2023-12-22T08:39:16;97366.22;;;9.46;100.00
34482;BME280;20720;48.886;9.388;2023-12-22T08:41:41;97345.50;;;8.96;100.00
34482;BME280;20720;48.886;9.388;2023-12-22T08:44:07;97339.09;;;9.16;100.00
34482;BME280;20720;48.886;9.388;2023-12-22T08:46:33;97351.88;;;9.74;100.00
34482;BME280;20720;48.886;9.388;2023-12-22T08:48:59;97349.91;;;8.95;100.00
34482;BME280;20720;48.886;9.388;2023-12-22T08:51:25;97343.31;;;9.42;100.00
34482;BME280;20720;48.886;9.388;2023-12-22T08:53:51;97357.78;;;9.20;100.00
34482;BME280;20720;48.886;9.388;2023-12-22T08:56:17;97342.31;;;9.61;100.00
34482;BME280;20720;48.886;9.388;2023-12-22T08:58:42;97364.75;;;9.75;100.00
34482;BME280;20720;48.886;9.388;2023-12-22T09:01:14;97357.25;;;9.61;100.00
34482;BME280;20720;48.886;9.388;2023-12-22T09:03:40;97349.44;;;9.54;100.00
34482;BME280;20720;48.886;9.388;2023-12-22T09:06:10;97345.75;;;9.37;100.00
34482;BME280;20720;48.886;9.388;2023-12-22T09:08:35;97352.53;;;9.87;100.00
34482;BME280;20720;48.886;9.388;2023-12-22T09:11:00;97347.97;;;9.58;100.00
34482;BME280;20720;48.886;9.388;2023-12-22T09:13:25;97362.22;;;9.87;100.00
34482;BME280;20720;48.886;9.388;2023-12-22T09:15:51;97354.44;;;9.80;100.00
34482;BME280;20720;48.886;9.388;2023-12-22T09:18:16;97347.69;;;9.48;100.00
34482;BME280;20720;48.886;9.388;2023-12-22T09:20:41;97328.19;;;9.98;100.00
34482;BME280;20720;48.886;9.388;2023-12-22T09:23:06;97342.53;;;9.78;100.00
34482;BME280;20720;48.886;9.388;2023-12-22T09:25:33;97310.31;;;9.34;100.00
34482;BME280;20720;48.886;9.388;2023-12-22T09:27:58;97374.84;;;10.14;100.00
34482;BME280;20720;48.886;9.388;2023-12-22T09:30:23;97370.88;;;10.05;100.00
34482;BME280;20720;48.886;9.388;2023-12-22T09:32:49;97368.69;;;10.57;100.00
34482;BME280;20720;48.886;9.388;2023-12-22T09:35:14;97409.69;;;10.39;100.00
34482;BME280;20720;48.886;9.388;2023-12-22T09:37:40;97404.59;;;10.26;100.00
34482;BME280;20720;48.886;9.388;2023-12-22T09:40:05;97418.88;;;10.49;100.00
34482;BME280;20720;48.886;9.388;2023-12-22T09:42:35;97415.81;;;9.97;100.00
34482;BME280;20720;48.886;9.388;2023-12-22T09:45:01;97400.41;;;10.01;100.00
34482;BME280;20720;48.886;9.388;2023-12-22T09:47:29;97415.31;;;9.64;100.00
34482;BME280;20720;48.886;9.388;2023-12-22T09:49:55;97397.66;;;9.71;100.00
34482;BME280;20720;48.886;9.388;2023-12-22T09:52:22;97411.75;;;9.52;100.00
34482;BME280;20720;48.886;9.388;2023-12-22T09:54:47;97410.84;;;9.89;100.00
34482;BME280;20720;48.886;9.388;2023-12-22T09:57:13;97414.06;;;10.09;100.00
34482;BME280;20720;48.886;9.388;2023-12-22T09:59:39;97420.88;;;9.92;100.00
34482;BME280;20720;48.886;9.388;2023-12-22T10:02:06;97412.03;;;10.11;100.00
34482;BME280;20720;48.886;9.388;2023-12-22T10:04:32;97410.03;;;9.89;100.00
34482;BME280;20720;48.886;9.388;2023-12-22T10:06:58;97410.56;;;9.97;100.00
34482;BME280;20720;48.886;9.388;2023-12-22T10:09:26;97404.75;;;10.13;100.00
34482;BME280;20720;48.886;9.388;2023-12-22T10:11:52;97405.22;;;9.86;100.00
34482;BME280;20720;48.886;9.388;2023-12-22T10:14:19;97392.28;;;9.66;100.00
34482;BME280;20720;48.886;9.388;2023-12-22T10:16:51;97400.06;;;9.97;100.00
34482;BME280;20720;48.886;9.388;2023-12-22T10:19:17;97389.66;;;10.27;100.00
34482;BME280;20720;48.886;9.388;2023-12-22T10:21:42;97381.03;;;10.02;100.00
34482;BME280;20720;48.886;9.388;2023-12-22T10:24:46;97381.34;;;10.12;100.00
34482;BME280;20720;48.886;9.388;2023-12-22T10:27:18;97380.75;;;10.28;100.00
34482;BME280;20720;48.886;9.388;2023-12-22T10:29:54;97369.47;;;10.27;100.00
34482;BME280;20720;48.886;9.388;2023-12-22T10:32:20;97358.09;;;10.15;100.00
34482;BME280;20720;48.886;9.388;2023-12-22T10:34:45;97367.03;;;10.26;100.00
34482;BME280;20720;48.886;9.388;2023-12-22T10:37:10;97363.84;;;10.83;100.00
34482;BME280;20720;48.886;9.388;2023-12-22T10:39:38;97362.66;;;10.68;100.00
34482;BME280;20720;48.886;9.388;2023-12-22T10:42:03;97362.88;;;10.36;100.00
34482;BME280;20720;48.886;9.388;2023-12-22T10:44:29;97361.16;;;10.60;100.00
34482;BME280;20720;48.886;9.388;2023-12-22T10:46:55;97359.69;;;10.34;100.00
34482;BME280;20720;48.886;9.388;2023-12-22T10:49:21;97348.25;;;10.59;100.00
34482;BME280;20720;48.886;9.388;2023-12-22T10:51:47;97331.53;;;10.83;100.00
34482;BME280;20720;48.886;9.388;2023-12-22T10:54:13;97338.44;;;10.66;100.00
34482;BME280;20720;48.886;9.388;2023-12-22T10:56:39;97329.97;;;10.64;100.00
34482;BME280;20720;48.886;9.388;2023-12-22T10:59:05;97328.22;;;10.87;100.00
34482;BME280;20720;48.886;9.388;2023-12-22T11:01:31;97331.94;;;10.68;100.00
34482;BME280;20720;48.886;9.388;2023-12-22T11:04:02;97329.06;;;10.58;100.00
34482;BME280;20720;48.886;9.388;2023-12-22T11:06:29;97327.34;;;10.52;100.00
34482;BME280;20720;48.886;9.388;2023-12-22T11:08:57;97321.56;;;10.62;100.00
34482;BME280;20720;48.886;9.388;2023-12-22T11:11:42;97321.41;;;10.57;100.00
34482;BME280;20720;48.886;9.388;2023-12-22T11:14:08;97330.50;;;10.54;100.00
34482;BME280;20720;48.886;9.388;2023-12-22T11:16:36;97315.53;;;10.73;100.00
34482;BME280;20720;48.886;9.388;2023-12-22T11:19:03;97322.16;;;10.46;100.00
34482;BME280;20720;48.886;9.388;2023-12-22T11:21:30;97318.91;;;10.62;100.00
34482;BME280;20720;48.886;9.388;2023-12-22T11:23:56;97306.34;;;10.64;100.00
34482;BME280;20720;48.886;9.388;2023-12-22T11:26:23;97296.50;;;10.48;100.00
34482;BME280;20720;48.886;9.388;2023-12-22T11:28:50;97288.91;;;10.69;100.00
34482;BME280;20720;48.886;9.388;2023-12-22T11:31:19;97296.13;;;10.44;100.00
34482;BME280;20720;48.886;9.388;2023-12-22T11:33:50;97291.69;;;10.45;100.00
34482;BME280;20720;48.886;9.388;2023-12-22T11:36:17;97281.22;;;10.68;100.00
34482;BME280;20720;48.886;9.388;2023-12-22T11:38:46;97270.00;;;10.49;100.00
34482;BME280;20720;48.886;9.388;2023-12-22T11:41:17;97275.19;;;10.79;100.00
34482;BME280;20720;48.886;9.388;2023-12-22T11:43:44;97271.28;;;10.58;100.00
34482;BME280;20720;48.886;9.388;2023-12-22T11:46:10;97264.50;;;10.51;100.00
34482;BME280;20720;48.886;9.388;2023-12-22T11:48:35;97266.50;;;10.25;100.00
34482;BME280;20720;48.886;9.388;2023-12-22T11:51:12;97249.56;;;10.51;100.00
34482;BME280;20720;48.886;9.388;2023-12-22T11:53:37;97255.69;;;10.75;100.00
34482;BME280;20720;48.886;9.388;2023-12-22T11:56:04;97255.56;;;10.81;100.00
34482;BME280;20720;48.886;9.388;2023-12-22T12:01:01;97241.38;;;10.59;100.00
34482;BME280;20720;48.886;9.388;2023-12-22T12:03:30;97229.22;;;10.35;100.00
34482;BME280;20720;48.886;9.388;2023-12-22T12:08:56;97239.19;;;10.45;100.00
34482;BME280;20720;48.886;9.388;2023-12-22T12:14:29;97217.44;;;10.37;100.00
34482;BME280;20720;48.886;9.388;2023-12-22T12:17:03;97215.59;;;10.26;100.00
34482;BME280;20720;48.886;9.388;2023-12-22T12:19:30;97207.22;;;10.48;100.00
34482;BME280;20720;48.886;9.388;2023-12-22T12:21:56;97207.41;;;10.34;100.00
34482;BME280;20720;48.886;9.388;2023-12-22T12:24:22;97214.09;;;10.19;100.00
34482;BME280;20720;48.886;9.388;2023-12-22T12:26:47;97195.91;;;10.59;100.00
34482;BME280;20720;48.886;9.388;2023-12-22T12:29:13;97191.78;;;10.51;100.00
34482;BME280;20720;48.886;9.388;2023-12-22T12:31:41;97195.09;;;10.47;100.00
34482;BME280;20720;48.886;9.388;2023-12-22T12:34:07;97194.88;;;10.36;100.00
34482;BME280;20720;48.886;9.388;2023-12-22T12:36:33;97193.75;;;10.56;100.00
34482;BME280;20720;48.886;9.388;2023-12-22T12:39:06;97190.13;;;10.80;100.00
34482;BME280;20720;48.886;9.388;2023-12-22T12:41:42;97182.09;;;10.52;100.00
34482;BME280;20720;48.886;9.388;2023-12-22T12:44:11;97182.22;;;11.03;100.00
34482;BME280;20720;48.886;9.388;2023-12-22T12:46:38;97173.66;;;10.61;100.00
34482;BME280;20720;48.886;9.388;2023-12-22T12:49:09;97164.06;;;10.90;100.00
34482;BME280;20720;48.886;9.388;2023-12-22T12:51:37;97167.34;;;10.39;100.00
34482;BME280;20720;48.886;9.388;2023-12-22T12:54:03;97163.75;;;10.75;100.00
34482;BME280;20720;48.886;9.388;2023-12-22T12:56:29;97163.94;;;10.50;100.00
34482;BME280;20720;48.886;9.388;2023-12-22T12:58:54;97155.13;;;10.21;100.00
34482;BME280;20720;48.886;9.388;2023-12-22T13:01:19;97154.25;;;10.74;100.00